createdAt,value
2023-04-19T00:00:56.046Z,0.00
2023-04-19T00:01:56.064Z,0.00
2023-04-19T00:02:56.247Z,0.00
2023-04-19T00:03:56.273Z,0.00
2023-04-19T00:04:56.116Z,0.00
2023-04-19T00:05:56.023Z,0.00
2023-04-19T00:06:55.997Z,0.00
2023-04-19T00:07:55.973Z,0.00
2023-04-19T00:08:55.984Z,0.00
2023-04-19T00:09:55.953Z,0.00
2023-04-19T00:10:56.017Z,0.00
2023-04-19T00:11:55.953Z,0.00
2023-04-19T00:12:55.915Z,0.00
2023-04-19T00:13:55.913Z,0.00
2023-04-19T00:14:55.912Z,0.00
2023-04-19T00:15:55.891Z,0.00
2023-04-19T00:16:55.913Z,0.00
2023-04-19T00:17:55.905Z,0.00
2023-04-19T00:18:55.854Z,0.00
2023-04-19T00:19:55.858Z,0.00
2023-04-19T00:20:55.833Z,0.00
2023-04-19T00:21:55.832Z,0.00
2023-04-19T00:22:55.810Z,0.00
2023-04-19T00:23:55.833Z,0.00
2023-04-19T00:24:55.792Z,0.00
2023-04-19T00:25:55.790Z,0.00
2023-04-19T00:26:55.806Z,0.00
2023-04-19T00:27:55.758Z,0.00
2023-04-19T00:28:55.751Z,0.00
2023-04-19T00:29:55.768Z,0.00
2023-04-19T00:30:55.756Z,0.00
2023-04-19T00:31:55.731Z,0.00
2023-04-19T00:32:55.746Z,0.00
2023-04-19T00:33:55.694Z,0.00
2023-04-19T00:34:55.697Z,0.00
2023-04-19T00:35:55.684Z,0.00
2023-04-19T00:36:55.662Z,0.00
2023-04-19T00:37:55.667Z,0.00
2023-04-19T00:38:55.636Z,0.00
2023-04-19T00:39:55.632Z,0.00
2023-04-19T00:40:55.650Z,0.00
2023-04-19T00:41:55.652Z,0.00
2023-04-19T00:42:55.665Z,0.00
2023-04-19T00:43:55.591Z,0.00
2023-04-19T00:44:55.573Z,0.00
2023-04-19T00:45:55.573Z,0.00
2023-04-19T00:46:55.552Z,0.00
2023-04-19T00:47:55.600Z,0.00
2023-04-19T00:48:55.545Z,0.00
2023-04-19T00:49:55.517Z,0.00
2023-04-19T00:50:55.510Z,0.00
2023-04-19T00:51:55.496Z,0.00
2023-04-19T00:52:55.493Z,0.00
2023-04-19T00:53:55.504Z,0.00
2023-04-19T00:54:55.465Z,0.00
2023-04-19T00:55:55.451Z,0.00
2023-04-19T00:56:55.445Z,0.00
2023-04-19T00:57:55.431Z,0.00
2023-04-19T00:58:55.444Z,0.00
2023-04-19T00:59:55.440Z,0.00
2023-04-19T01:00:55.403Z,0.00
2023-04-19T01:01:55.566Z,0.00
2023-04-19T01:02:55.491Z,0.00
2023-04-19T01:03:55.435Z,0.00
2023-04-19T01:04:55.391Z,0.00
2023-04-19T01:05:55.359Z,0.00
2023-04-19T01:06:55.354Z,0.00
2023-04-19T01:07:55.324Z,0.00
2023-04-19T01:08:55.314Z,0.00
2023-04-19T01:09:55.313Z,0.00
2023-04-19T01:10:55.301Z,0.00
2023-04-19T01:11:55.296Z,0.00
2023-04-19T01:12:55.270Z,0.00
2023-04-19T01:13:55.264Z,0.00
2023-04-19T01:14:55.287Z,0.00
2023-04-19T01:15:55.288Z,0.00
2023-04-19T01:16:55.234Z,0.00
2023-04-19T01:17:55.286Z,0.00
2023-04-19T01:18:55.214Z,0.00
2023-04-19T01:19:55.204Z,0.00
2023-04-19T01:20:55.185Z,0.00
2023-04-19T01:21:55.185Z,0.00
2023-04-19T01:22:55.164Z,0.00
2023-04-19T01:23:55.163Z,0.00
2023-04-19T01:24:55.149Z,0.00
2023-04-19T01:25:55.145Z,0.00
2023-04-19T01:26:55.128Z,0.00
2023-04-19T01:27:55.117Z,0.00
2023-04-19T01:28:55.099Z,0.00
2023-04-19T01:29:55.098Z,0.00
2023-04-19T01:30:55.143Z,0.00
2023-04-19T01:31:55.074Z,0.00
2023-04-19T01:32:55.118Z,0.00
2023-04-19T01:33:55.054Z,0.00
2023-04-19T01:34:55.041Z,0.00
2023-04-19T01:35:55.037Z,0.00
2023-04-19T01:36:55.015Z,0.00
2023-04-19T01:37:54.998Z,0.00
2023-04-19T01:38:54.992Z,0.00
2023-04-19T01:39:54.988Z,0.00
2023-04-19T01:40:54.977Z,0.00
2023-04-19T01:41:54.976Z,0.00
2023-04-19T01:42:54.949Z,0.00
2023-04-19T01:43:54.937Z,0.00
2023-04-19T01:44:54.939Z,0.00
2023-04-19T01:45:54.916Z,0.00
2023-04-19T01:46:55.089Z,0.00
2023-04-19T01:47:55.027Z,0.00
2023-04-19T01:48:54.885Z,0.00
2023-04-19T01:49:54.878Z,0.00
2023-04-19T01:50:54.872Z,0.00
2023-04-19T01:51:54.856Z,0.00
2023-04-19T01:52:54.854Z,0.00
2023-04-19T01:53:54.906Z,0.00
2023-04-19T01:54:54.823Z,0.00
2023-04-19T01:55:54.828Z,0.00
2023-04-19T01:56:54.798Z,0.00
2023-04-19T01:57:54.886Z,0.00
2023-04-19T01:58:54.781Z,0.00
2023-04-19T01:59:54.778Z,0.00
2023-04-19T02:00:54.770Z,0.00
2023-04-19T02:01:54.839Z,0.00
2023-04-19T02:02:54.876Z,0.00
2023-04-19T02:03:54.907Z,0.00
2023-04-19T02:04:54.751Z,0.00
2023-04-19T02:05:54.698Z,0.00
2023-04-19T02:06:54.691Z,0.00
2023-04-19T02:07:54.674Z,0.00
2023-04-19T02:08:54.666Z,0.00
2023-04-19T02:09:54.681Z,0.00
2023-04-19T02:10:54.674Z,0.00
2023-04-19T02:11:54.632Z,0.00
2023-04-19T02:12:54.625Z,0.00
2023-04-19T02:13:54.625Z,0.00
2023-04-19T02:14:54.604Z,0.00
2023-04-19T02:15:54.667Z,0.00
2023-04-19T02:16:54.646Z,0.00
2023-04-19T02:17:54.574Z,0.00
2023-04-19T02:18:54.656Z,0.00
2023-04-19T02:19:54.597Z,0.00
2023-04-19T02:20:54.540Z,0.00
2023-04-19T02:21:54.539Z,0.00
2023-04-19T02:22:54.545Z,0.00
2023-04-19T02:23:54.501Z,0.00
2023-04-19T02:24:54.506Z,0.00
2023-04-19T02:25:54.493Z,0.00
2023-04-19T02:26:54.487Z,0.00
2023-04-19T02:27:54.466Z,0.00
2023-04-19T02:28:54.472Z,0.00
2023-04-19T02:29:54.469Z,0.00
2023-04-19T02:30:54.441Z,0.00
2023-04-19T02:31:54.438Z,0.00
2023-04-19T02:32:54.443Z,0.00
2023-04-19T02:33:54.443Z,0.00
2023-04-19T02:34:54.417Z,0.00
2023-04-19T02:35:54.389Z,0.00
2023-04-19T02:36:54.382Z,0.00
2023-04-19T02:37:54.352Z,0.00
2023-04-19T02:38:54.349Z,0.00
2023-04-19T02:39:54.347Z,0.00
2023-04-19T02:40:54.336Z,0.00
2023-04-19T02:41:54.339Z,0.00
2023-04-19T02:42:54.303Z,0.00
2023-04-19T02:43:54.294Z,0.00
2023-04-19T02:44:54.283Z,0.00
2023-04-19T02:45:54.297Z,0.00
2023-04-19T02:46:54.281Z,0.00
2023-04-19T02:47:54.303Z,0.00
2023-04-19T02:48:54.242Z,0.00
2023-04-19T02:49:54.221Z,0.00
2023-04-19T02:50:54.236Z,0.00
2023-04-19T02:51:54.209Z,0.00
2023-04-19T02:52:54.231Z,0.00
2023-04-19T02:53:54.187Z,0.00
2023-04-19T02:54:54.173Z,0.00
2023-04-19T02:55:54.164Z,0.00
2023-04-19T02:56:54.160Z,0.00
2023-04-19T02:57:54.150Z,0.00
2023-04-19T02:58:54.185Z,0.00
2023-04-19T02:59:54.126Z,0.00
2023-04-19T03:00:54.145Z,0.00
2023-04-19T03:01:54.108Z,0.00
2023-04-19T03:02:54.231Z,0.00
2023-04-19T03:03:54.113Z,0.00
2023-04-19T03:04:54.082Z,0.00
2023-04-19T03:05:54.052Z,0.00
2023-04-19T03:06:54.081Z,0.00
2023-04-19T03:07:54.032Z,0.00
2023-04-19T03:08:54.032Z,0.00
2023-04-19T03:09:54.006Z,0.00
2023-04-19T03:10:54.019Z,0.00
2023-04-19T03:11:53.984Z,0.00
2023-04-19T03:12:53.980Z,0.00
2023-04-19T03:13:53.962Z,0.00
2023-04-19T03:14:53.971Z,0.00
2023-04-19T03:15:53.960Z,0.00
2023-04-19T03:16:53.958Z,0.00
2023-04-19T03:17:53.930Z,0.00
2023-04-19T03:18:53.952Z,0.00
2023-04-19T03:19:53.901Z,0.00
2023-04-19T03:20:53.887Z,0.00
2023-04-19T03:21:53.873Z,0.00
2023-04-19T03:22:53.941Z,0.00
2023-04-19T03:23:53.852Z,0.00
2023-04-19T03:24:53.861Z,0.00
2023-04-19T03:25:53.828Z,0.00
2023-04-19T03:26:53.833Z,0.00
2023-04-19T03:27:53.806Z,0.00
2023-04-19T03:28:53.843Z,0.00
2023-04-19T03:29:53.783Z,0.00
2023-04-19T03:30:53.793Z,0.00
2023-04-19T03:31:53.768Z,0.00
2023-04-19T03:32:53.801Z,0.00
2023-04-19T03:33:53.748Z,0.00
2023-04-19T03:34:53.751Z,0.00
2023-04-19T03:35:53.716Z,0.00
2023-04-19T03:36:53.715Z,0.00
2023-04-19T03:37:53.705Z,0.00
2023-04-19T03:38:53.718Z,0.00
2023-04-19T03:39:53.685Z,0.00
2023-04-19T03:40:53.681Z,0.00
2023-04-19T03:41:53.663Z,0.00
2023-04-19T03:42:53.661Z,0.00
2023-04-19T03:43:53.634Z,0.00
2023-04-19T03:44:53.622Z,0.00
2023-04-19T03:45:53.641Z,0.00
2023-04-19T03:46:53.616Z,0.00
2023-04-19T03:47:53.640Z,0.00
2023-04-19T03:48:53.581Z,0.00
2023-04-19T03:49:53.566Z,0.00
2023-04-19T03:50:53.564Z,0.00
2023-04-19T03:51:53.547Z,0.00
2023-04-19T03:52:53.544Z,0.00
2023-04-19T03:53:53.534Z,0.00
2023-04-19T03:54:53.532Z,0.00
2023-04-19T03:55:53.508Z,0.00
2023-04-19T03:56:53.513Z,0.00
2023-04-19T03:57:53.477Z,0.00
2023-04-19T03:58:53.503Z,0.00
2023-04-19T03:59:53.456Z,0.00
2023-04-19T04:00:53.454Z,0.00
2023-04-19T04:01:53.443Z,0.00
2023-04-19T04:02:53.653Z,0.00
2023-04-19T04:03:53.689Z,0.00
2023-04-19T04:04:53.612Z,0.00
2023-04-19T04:05:53.389Z,0.00
2023-04-19T04:06:53.393Z,0.00
2023-04-19T04:07:53.374Z,0.00
2023-04-19T04:08:53.375Z,0.00
2023-04-19T04:09:53.364Z,0.00
2023-04-19T04:10:53.366Z,0.00
2023-04-19T04:11:53.335Z,0.00
2023-04-19T04:12:53.317Z,0.00
2023-04-19T04:13:53.308Z,0.00
2023-04-19T04:14:53.294Z,0.00
2023-04-19T04:15:53.350Z,0.00
2023-04-19T04:16:53.328Z,0.00
2023-04-19T04:17:53.309Z,0.00
2023-04-19T04:18:53.265Z,0.00
2023-04-19T04:19:53.241Z,0.00
2023-04-19T04:20:53.252Z,0.00
2023-04-19T04:21:53.215Z,0.00
2023-04-19T04:22:53.226Z,0.00
2023-04-19T04:23:53.205Z,0.00
2023-04-19T04:24:53.214Z,0.00
2023-04-19T04:25:53.171Z,5.62
2023-04-19T04:26:53.191Z,5.62
2023-04-19T04:27:53.163Z,5.62
2023-04-19T04:28:53.164Z,5.62
2023-04-19T04:29:53.139Z,5.62
2023-04-19T04:30:53.142Z,5.62
2023-04-19T04:31:53.147Z,5.62
2023-04-19T04:32:53.171Z,11.25
2023-04-19T04:33:53.131Z,11.25
2023-04-19T04:34:53.171Z,11.25
2023-04-19T04:35:53.078Z,11.25
2023-04-19T04:36:53.092Z,11.25
2023-04-19T04:37:53.067Z,16.88
2023-04-19T04:38:53.065Z,16.88
2023-04-19T04:39:53.054Z,16.88
2023-04-19T04:40:53.074Z,16.88
2023-04-19T04:41:53.021Z,22.50
2023-04-19T04:42:53.103Z,22.50
2023-04-19T04:44:08.262Z,22.50
2023-04-19T04:44:53.992Z,22.50
2023-04-19T04:45:53.003Z,28.12
2023-04-19T04:46:53.002Z,28.12
2023-04-19T04:47:53.048Z,28.12
2023-04-19T04:48:52.950Z,28.12
2023-04-19T04:49:52.965Z,33.75
2023-04-19T04:50:52.935Z,33.75
2023-04-19T04:51:52.953Z,39.38
2023-04-19T04:52:52.947Z,39.38
2023-04-19T04:53:52.895Z,39.38
2023-04-19T04:54:52.890Z,45.00
2023-04-19T04:55:52.885Z,45.00
2023-04-19T04:56:52.904Z,50.62
2023-04-19T04:57:52.873Z,50.62
2023-04-19T04:58:52.888Z,56.25
2023-04-19T04:59:52.841Z,56.25
2023-04-19T05:00:52.842Z,61.88
2023-04-19T05:01:52.824Z,61.88
2023-04-19T05:02:52.915Z,61.88
2023-04-19T05:03:52.845Z,61.88
2023-04-19T05:04:52.793Z,67.50
2023-04-19T05:05:52.784Z,67.50
2023-04-19T05:06:52.790Z,73.12
2023-04-19T05:07:52.825Z,73.12
2023-04-19T05:08:52.734Z,73.12
2023-04-19T05:09:52.737Z,78.75
2023-04-19T05:10:52.736Z,84.38
2023-04-19T05:11:52.712Z,90.00
2023-04-19T05:12:52.694Z,95.62
2023-04-19T05:13:52.687Z,101.25
2023-04-19T05:14:52.689Z,106.88
2023-04-19T05:15:52.767Z,112.50
2023-04-19T05:16:52.715Z,112.50
2023-04-19T05:17:52.839Z,118.12
2023-04-19T05:18:52.638Z,123.75
2023-04-19T05:19:52.624Z,129.38
2023-04-19T05:20:52.615Z,135.00
2023-04-19T05:21:52.651Z,140.62
2023-04-19T05:22:52.588Z,146.25
2023-04-19T05:23:52.605Z,151.88
2023-04-19T05:24:52.562Z,163.12
2023-04-19T05:25:52.558Z,174.38
2023-04-19T05:26:52.536Z,185.62
2023-04-19T05:27:52.551Z,241.88
2023-04-19T05:28:52.545Z,331.88
2023-04-19T05:29:52.527Z,365.62
2023-04-19T05:30:52.687Z,399.38
2023-04-19T05:31:52.610Z,427.50
2023-04-19T05:32:52.522Z,444.38
2023-04-19T05:33:52.483Z,455.62
2023-04-19T05:34:52.453Z,466.88
2023-04-19T05:35:52.444Z,483.75
2023-04-19T05:36:52.540Z,489.38
2023-04-19T05:37:52.432Z,489.38
2023-04-19T05:38:52.411Z,483.75
2023-04-19T05:39:52.434Z,483.75
2023-04-19T05:40:52.390Z,511.88
2023-04-19T05:41:52.528Z,556.88
2023-04-19T05:42:52.366Z,551.25
2023-04-19T05:43:52.371Z,528.75
2023-04-19T05:44:52.350Z,517.50
2023-04-19T05:45:52.412Z,523.12
2023-04-19T05:46:52.414Z,534.38
2023-04-19T05:47:52.336Z,556.88
2023-04-19T05:48:52.302Z,562.50
2023-04-19T05:49:52.304Z,562.50
2023-04-19T05:50:52.295Z,601.88
2023-04-19T05:51:52.292Z,607.50
2023-04-19T05:52:52.259Z,613.12
2023-04-19T05:53:53.345Z,635.62
2023-04-19T05:54:52.237Z,646.88
2023-04-19T05:55:52.330Z,641.25
2023-04-19T05:56:52.214Z,630.00
2023-04-19T05:57:52.222Z,635.62
2023-04-19T05:58:52.193Z,641.25
2023-04-19T05:59:52.195Z,669.38
2023-04-19T06:00:52.174Z,680.62
2023-04-19T06:01:52.252Z,691.88
2023-04-19T06:02:52.323Z,691.88
2023-04-19T06:03:52.382Z,691.88
2023-04-19T06:04:52.416Z,697.50
2023-04-19T06:05:52.152Z,708.75
2023-04-19T06:06:52.108Z,675.00
2023-04-19T06:07:55.621Z,663.75
2023-04-19T06:08:54.884Z,669.38
2023-04-19T06:09:52.118Z,697.50
2023-04-19T06:10:55.859Z,753.75
2023-04-19T06:11:53.085Z,793.12
2023-04-19T06:12:52.053Z,765.00
2023-04-19T06:13:52.033Z,776.25
2023-04-19T06:14:52.039Z,787.50
2023-04-19T06:15:52.070Z,826.88
2023-04-19T06:16:52.018Z,832.50
2023-04-19T06:17:52.039Z,871.88
2023-04-19T06:18:52.016Z,855.00
2023-04-19T06:19:51.972Z,905.62
2023-04-19T06:20:51.953Z,956.25
2023-04-19T06:21:51.967Z,956.25
2023-04-19T06:22:51.942Z,990.00
2023-04-19T06:23:51.937Z,984.38
2023-04-19T06:24:51.918Z,973.12
2023-04-19T06:25:51.915Z,973.12
2023-04-19T06:26:51.890Z,978.75
2023-04-19T06:27:51.893Z,978.75
2023-04-19T06:28:51.869Z,990.00
2023-04-19T06:29:51.870Z,1012.50
2023-04-19T06:30:51.847Z,1001.25
2023-04-19T06:31:51.917Z,1001.25
2023-04-19T06:32:51.856Z,1080.00
2023-04-19T06:33:51.835Z,1130.62
2023-04-19T06:34:51.987Z,1085.62
2023-04-19T06:35:51.806Z,1096.88
2023-04-19T06:36:51.783Z,1175.62
2023-04-19T06:37:52.183Z,1125.00
2023-04-19T06:38:51.760Z,1170.00
2023-04-19T06:39:51.779Z,1231.88
2023-04-19T06:40:51.741Z,1175.62
2023-04-19T06:41:51.730Z,1215.00
2023-04-19T06:42:51.722Z,1243.12
2023-04-19T06:43:51.717Z,1231.88
2023-04-19T06:44:51.715Z,1141.88
2023-04-19T06:45:51.971Z,1186.88
2023-04-19T06:46:51.703Z,1321.88
2023-04-19T06:47:51.770Z,1428.75
2023-04-19T06:48:51.668Z,1451.25
2023-04-19T06:49:51.644Z,1366.88
2023-04-19T06:50:51.771Z,1198.12
2023-04-19T06:51:51.644Z,1164.38
2023-04-19T06:52:51.611Z,1299.38
2023-04-19T06:53:51.606Z,1462.50
2023-04-19T06:54:51.588Z,1383.75
2023-04-19T06:55:51.579Z,1288.12
2023-04-19T06:56:51.583Z,1260.00
2023-04-19T06:57:51.567Z,1310.62
2023-04-19T06:58:51.547Z,1378.12
2023-04-19T06:59:51.535Z,1395.00
2023-04-19T07:00:51.520Z,1389.38
2023-04-19T07:01:51.717Z,1395.00
2023-04-19T07:02:51.572Z,1479.38
2023-04-19T07:03:51.618Z,1501.88
2023-04-19T07:04:51.565Z,1383.75
2023-04-19T07:05:51.473Z,1372.50
2023-04-19T07:06:51.485Z,1451.25
2023-04-19T07:07:51.457Z,1400.62
2023-04-19T07:08:51.449Z,1366.88
2023-04-19T07:09:51.436Z,1445.62
2023-04-19T07:10:51.772Z,1552.50
2023-04-19T07:11:51.407Z,1535.62
2023-04-19T07:12:51.390Z,1501.88
2023-04-19T07:13:51.407Z,1501.88
2023-04-19T07:14:51.390Z,1541.25
2023-04-19T07:15:51.422Z,1608.75
2023-04-19T07:16:52.326Z,1513.12
2023-04-19T07:17:51.374Z,1496.25
2023-04-19T07:18:51.322Z,1552.50
2023-04-19T07:19:51.328Z,1513.12
2023-04-19T07:20:51.401Z,1620.00
2023-04-19T07:21:51.312Z,1766.25
2023-04-19T07:22:51.590Z,1659.38
2023-04-19T07:23:51.270Z,1636.88
2023-04-19T07:24:51.266Z,1681.88
2023-04-19T07:25:51.258Z,1659.38
2023-04-19T07:26:51.245Z,1586.25
2023-04-19T07:27:52.269Z,1591.88
2023-04-19T07:28:51.207Z,1620.00
2023-04-19T07:29:51.201Z,1698.75
2023-04-19T07:30:51.204Z,1698.75
2023-04-19T07:31:51.332Z,1687.50
2023-04-19T07:32:51.288Z,1659.38
2023-04-19T07:33:51.161Z,1659.38
2023-04-19T07:34:51.148Z,1811.25
2023-04-19T07:35:51.228Z,1738.12
2023-04-19T07:36:51.139Z,1732.50
2023-04-19T07:37:51.113Z,1777.50
2023-04-19T07:38:51.163Z,1693.12
2023-04-19T07:39:51.109Z,1833.75
2023-04-19T07:40:51.090Z,1828.12
2023-04-19T07:41:51.085Z,1800.00
2023-04-19T07:42:51.087Z,2047.50
2023-04-19T07:43:51.049Z,1828.12
2023-04-19T07:44:51.068Z,1670.62
2023-04-19T07:45:51.029Z,1856.25
2023-04-19T07:46:51.142Z,1935.00
2023-04-19T07:47:51.126Z,1816.88
2023-04-19T07:48:50.988Z,1828.12
2023-04-19T07:49:50.991Z,1816.88
2023-04-19T07:50:50.987Z,1929.38
2023-04-19T07:51:50.962Z,2030.62
2023-04-19T07:52:50.957Z,1749.38
2023-04-19T07:53:50.954Z,1771.88
2023-04-19T07:54:50.964Z,1833.75
2023-04-19T07:55:50.916Z,1890.00
2023-04-19T07:56:50.932Z,2019.38
2023-04-19T07:57:50.904Z,1957.50
2023-04-19T07:59:04.271Z,1811.25
2023-04-19T07:59:51.917Z,1985.62
2023-04-19T08:00:50.925Z,2103.75
2023-04-19T08:01:51.004Z,1980.00
2023-04-19T08:02:51.300Z,2002.50
2023-04-19T08:03:51.128Z,2070.00
2023-04-19T08:04:51.147Z,2143.12
2023-04-19T08:05:50.989Z,2064.38
2023-04-19T08:06:50.817Z,2041.88
2023-04-19T08:07:50.791Z,2008.12
2023-04-19T08:08:50.827Z,2109.38
2023-04-19T08:09:50.824Z,2221.88
2023-04-19T08:10:50.808Z,2278.12
2023-04-19T08:11:50.742Z,2227.50
2023-04-19T08:14:04.650Z,1980.00
2023-04-19T08:15:03.898Z,2120.62
2023-04-19T08:16:24.386Z,2115.00
2023-04-19T08:17:50.814Z,2041.88
2023-04-19T08:18:50.666Z,1985.62
2023-04-19T08:19:50.668Z,2143.12
2023-04-19T08:20:50.660Z,2238.75
2023-04-19T08:21:50.638Z,2008.12
2023-04-19T08:22:50.649Z,1895.62
2023-04-19T08:23:52.649Z,1850.62
2023-04-19T08:24:50.609Z,2098.12
2023-04-19T08:25:50.599Z,2334.38
2023-04-19T08:26:50.600Z,2295.00
2023-04-19T08:27:50.579Z,2300.62
2023-04-19T08:28:50.563Z,2266.88
2023-04-19T08:29:50.557Z,2227.50
2023-04-19T08:30:50.600Z,2148.75
2023-04-19T08:31:50.570Z,2109.38
2023-04-19T08:32:50.619Z,2188.12
2023-04-19T08:33:50.519Z,2210.62
2023-04-19T08:34:50.535Z,2368.12
2023-04-19T08:35:50.495Z,2311.88
2023-04-19T08:36:56.180Z,2295.00
2023-04-19T08:37:51.465Z,2311.88
2023-04-19T08:39:01.982Z,2193.75
2023-04-19T08:39:51.449Z,2295.00
2023-04-19T08:40:50.430Z,2435.62
2023-04-19T08:42:02.544Z,2109.38
2023-04-19T08:42:51.445Z,1940.62
2023-04-19T08:43:50.428Z,2019.38
2023-04-19T08:45:13.071Z,2092.50
2023-04-19T08:45:51.412Z,2283.75
2023-04-19T08:46:50.367Z,2424.38
2023-04-19T08:47:59.924Z,2266.88
2023-04-19T08:48:51.409Z,2340.00
2023-04-19T08:49:59.635Z,2553.75
2023-04-19T08:51:04.501Z,2660.62
2023-04-19T08:51:51.326Z,2441.25
2023-04-19T08:52:56.051Z,2390.62
2023-04-19T08:53:51.297Z,2345.62
2023-04-19T08:54:50.281Z,2300.62
2023-04-19T08:56:08.709Z,2531.25
2023-04-19T08:56:51.275Z,2615.62
2023-04-19T08:57:50.284Z,2503.12
2023-04-19T08:59:50.229Z,2497.50
2023-04-19T09:00:50.225Z,2576.25
2023-04-19T09:01:50.262Z,2435.62
2023-04-19T09:02:50.364Z,2463.75
2023-04-19T09:04:01.323Z,2491.88
2023-04-19T09:04:51.416Z,2368.12
2023-04-19T09:05:50.418Z,2463.75
2023-04-19T09:06:50.164Z,2463.75
2023-04-19T09:07:50.145Z,2615.62
2023-04-19T09:08:50.138Z,2795.62
2023-04-19T09:10:00.022Z,2716.88
2023-04-19T09:10:51.111Z,2700.00
2023-04-19T09:11:50.098Z,1715.62
2023-04-19T09:12:50.112Z,2671.88
2023-04-19T09:13:51.260Z,2739.38
2023-04-19T09:15:01.386Z,1181.25
2023-04-19T09:15:51.074Z,2075.62
2023-04-19T09:16:50.043Z,3020.62
2023-04-19T09:17:50.069Z,2463.75
2023-04-19T09:18:59.775Z,2970.00
2023-04-19T09:19:51.068Z,2649.38
2023-04-19T09:20:50.018Z,2587.50
2023-04-19T09:21:49.986Z,2908.12
2023-04-19T09:22:49.977Z,3015.00
2023-04-19T09:23:49.964Z,2795.62
2023-04-19T09:26:15.162Z,2812.50
2023-04-19T09:26:50.946Z,2688.75
2023-04-19T09:27:49.930Z,2587.50
2023-04-19T09:28:49.926Z,3031.88
2023-04-19T09:29:49.902Z,3234.38
2023-04-19T09:31:02.298Z,3183.75
2023-04-19T09:31:52.127Z,1665.00
2023-04-19T09:32:50.120Z,883.12
2023-04-19T09:33:49.864Z,1906.88
2023-04-19T09:34:49.836Z,2626.88
2023-04-19T09:35:49.834Z,1985.62
2023-04-19T09:36:54.536Z,2874.38
2023-04-19T09:38:04.856Z,2593.12
2023-04-19T09:38:50.838Z,3076.88
2023-04-19T09:39:49.779Z,2925.00
2023-04-19T09:40:49.770Z,2846.25
2023-04-19T09:41:49.768Z,950.62
2023-04-19T09:45:49.717Z,731.25
2023-04-19T09:46:51.670Z,911.25
2023-04-19T09:47:49.725Z,804.38
2023-04-19T09:48:49.678Z,753.75
2023-04-19T09:49:49.953Z,691.88
2023-04-19T09:50:56.812Z,725.62
2023-04-19T09:51:50.648Z,894.38
2023-04-19T09:52:49.654Z,1316.25
2023-04-19T09:53:49.628Z,2930.62
2023-04-19T09:54:49.622Z,2818.12
2023-04-19T09:56:00.187Z,2863.12
2023-04-19T09:56:50.598Z,888.75
2023-04-19T09:57:49.602Z,2655.00
2023-04-19T09:58:54.631Z,697.50
2023-04-19T09:59:50.558Z,680.62
2023-04-19T10:00:53.073Z,675.00
2023-04-19T10:01:50.614Z,736.88
2023-04-19T10:02:52.100Z,641.25
2023-04-19T10:03:49.887Z,742.50
2023-04-19T10:05:10.639Z,2840.62
2023-04-19T10:05:50.503Z,776.25
2023-04-19T10:07:18.843Z,585.00
2023-04-19T10:07:50.538Z,562.50
2023-04-19T10:08:49.487Z,545.62
2023-04-19T10:09:54.203Z,545.62
2023-04-19T10:10:51.439Z,596.25
2023-04-19T10:11:51.178Z,635.62
2023-04-19T10:13:07.567Z,652.50
2023-04-19T10:13:50.413Z,703.12
2023-04-19T10:14:49.405Z,826.88
2023-04-19T10:15:54.103Z,1569.38
2023-04-19T10:16:50.383Z,3358.12
2023-04-19T10:17:49.386Z,1558.12
2023-04-19T10:18:49.370Z,781.88
2023-04-19T10:19:49.344Z,776.25
2023-04-19T10:20:49.351Z,2891.25
2023-04-19T10:21:49.335Z,770.62
2023-04-19T10:22:49.301Z,832.50
2023-04-19T10:23:49.301Z,3093.75
2023-04-19T10:24:49.282Z,725.62
2023-04-19T10:25:49.279Z,776.25
2023-04-19T10:26:49.276Z,781.88
2023-04-19T10:27:49.291Z,838.12
2023-04-19T10:28:49.238Z,703.12
2023-04-19T10:29:49.233Z,635.62
2023-04-19T10:30:49.214Z,601.88
2023-04-19T10:31:49.268Z,607.50
2023-04-19T10:32:49.261Z,641.25
2023-04-19T10:33:49.196Z,1141.88
2023-04-19T10:34:49.188Z,675.00
2023-04-19T10:35:49.176Z,646.88
2023-04-19T10:36:49.158Z,646.88
2023-04-19T10:37:49.155Z,652.50
2023-04-19T10:38:49.147Z,652.50
2023-04-19T10:39:49.142Z,669.38
2023-04-19T10:40:49.115Z,697.50
2023-04-19T10:41:49.109Z,714.38
2023-04-19T10:42:49.093Z,736.88
2023-04-19T10:43:49.079Z,821.25
2023-04-19T10:44:49.075Z,883.12
2023-04-19T10:45:49.093Z,849.38
2023-04-19T10:46:49.040Z,748.12
2023-04-19T10:47:49.044Z,714.38
2023-04-19T10:48:49.033Z,748.12
2023-04-19T10:49:49.013Z,725.62
2023-04-19T10:50:49.283Z,776.25
2023-04-19T10:51:48.990Z,928.12
2023-04-19T10:52:48.977Z,860.62
2023-04-19T10:53:49.024Z,697.50
2023-04-19T10:54:48.964Z,686.25
2023-04-19T10:55:48.954Z,686.25
2023-04-19T10:56:48.954Z,714.38
2023-04-19T10:57:48.930Z,714.38
2023-04-19T10:58:48.914Z,798.75
2023-04-19T10:59:48.917Z,691.88
2023-04-19T11:00:48.885Z,658.12
2023-04-19T11:01:48.914Z,635.62
2023-04-19T11:02:49.049Z,630.00
2023-04-19T11:03:49.086Z,635.62
2023-04-19T11:04:48.904Z,630.00
2023-04-19T11:05:48.837Z,630.00
2023-04-19T11:06:48.880Z,635.62
2023-04-19T11:07:48.815Z,630.00
2023-04-19T11:08:48.817Z,607.50
2023-04-19T11:09:48.793Z,590.62
2023-04-19T11:10:48.788Z,579.38
2023-04-19T11:11:48.780Z,590.62
2023-04-19T11:12:48.755Z,590.62
2023-04-19T11:13:48.775Z,579.38
2023-04-19T11:14:48.771Z,579.38
2023-04-19T11:15:48.802Z,579.38
2023-04-19T11:16:48.836Z,573.75
2023-04-19T11:17:54.867Z,562.50
2023-04-19T11:18:49.687Z,562.50
2023-04-19T11:19:48.703Z,551.25
2023-04-19T11:20:48.711Z,568.12
2023-04-19T11:21:48.658Z,601.88
2023-04-19T11:22:48.675Z,635.62
2023-04-19T11:23:48.640Z,720.00
2023-04-19T11:24:48.626Z,781.88
2023-04-19T11:25:48.636Z,2846.25
2023-04-19T11:26:48.639Z,2761.88
2023-04-19T11:27:48.596Z,1631.25
2023-04-19T11:28:48.633Z,821.25
2023-04-19T11:29:48.590Z,793.12
2023-04-19T11:30:48.562Z,770.62
2023-04-19T11:31:48.633Z,759.38
2023-04-19T11:32:48.848Z,748.12
2023-04-19T11:33:48.534Z,753.75
2023-04-19T11:34:48.513Z,765.00
2023-04-19T11:35:48.506Z,787.50
2023-04-19T11:36:48.488Z,883.12
2023-04-19T11:37:48.489Z,815.62
2023-04-19T11:38:48.603Z,798.75
2023-04-19T11:39:48.473Z,815.62
2023-04-19T11:40:48.444Z,1012.50
2023-04-19T11:41:48.445Z,1890.00
2023-04-19T11:42:48.435Z,2092.50
2023-04-19T11:43:48.516Z,866.25
2023-04-19T11:44:48.409Z,2868.75
2023-04-19T11:45:48.395Z,2975.62
2023-04-19T11:46:48.413Z,2531.25
2023-04-19T11:47:48.402Z,2953.12
2023-04-19T11:48:48.355Z,680.62
2023-04-19T11:49:48.347Z,630.00
2023-04-19T11:50:48.346Z,596.25
2023-04-19T11:51:48.333Z,579.38
2023-04-19T11:52:48.322Z,562.50
2023-04-19T11:53:48.303Z,528.75
2023-04-19T11:54:48.370Z,495.00
2023-04-19T11:55:48.290Z,478.12
2023-04-19T11:56:48.293Z,472.50
2023-04-19T11:57:48.272Z,472.50
2023-04-19T11:58:48.438Z,478.12
2023-04-19T11:59:48.239Z,489.38
2023-04-19T12:00:48.232Z,506.25
2023-04-19T12:01:48.234Z,506.25
2023-04-19T12:02:48.406Z,517.50
2023-04-19T12:03:48.433Z,528.75
2023-04-19T12:04:48.366Z,551.25
2023-04-19T12:05:48.244Z,585.00
2023-04-19T12:06:48.157Z,697.50
2023-04-19T12:07:48.147Z,2171.25
2023-04-19T12:08:48.149Z,2536.88
2023-04-19T12:09:48.161Z,804.38
2023-04-19T12:10:48.136Z,1175.62
2023-04-19T12:11:48.106Z,1209.38
2023-04-19T12:12:48.092Z,658.12
2023-04-19T12:13:48.083Z,573.75
2023-04-19T12:14:48.077Z,568.12
2023-04-19T12:15:48.068Z,556.88
2023-04-19T12:16:48.081Z,540.00
2023-04-19T12:17:56.995Z,528.75
2023-04-19T12:18:49.245Z,540.00
2023-04-19T12:19:48.049Z,568.12
2023-04-19T12:20:48.009Z,585.00
2023-04-19T12:21:48.015Z,596.25
2023-04-19T12:22:47.988Z,601.88
2023-04-19T12:23:47.974Z,635.62
2023-04-19T12:24:47.958Z,725.62
2023-04-19T12:25:47.983Z,1130.62
2023-04-19T12:26:48.167Z,2030.62
2023-04-19T12:27:47.926Z,2581.88
2023-04-19T12:28:47.918Z,2463.75
2023-04-19T12:29:47.920Z,2424.38
2023-04-19T12:30:47.899Z,2306.25
2023-04-19T12:31:47.924Z,2340.00
2023-04-19T12:32:47.901Z,2430.00
2023-04-19T12:33:47.863Z,2548.12
2023-04-19T12:34:47.856Z,2728.12
2023-04-19T12:35:47.833Z,2891.25
2023-04-19T12:36:47.845Z,2998.12
2023-04-19T12:37:47.818Z,900.00
2023-04-19T12:38:47.826Z,1411.88
2023-04-19T12:39:47.790Z,759.38
2023-04-19T12:40:47.775Z,731.25
2023-04-19T12:41:47.780Z,720.00
2023-04-19T12:42:47.855Z,708.75
2023-04-19T12:43:47.759Z,742.50
2023-04-19T12:44:47.751Z,770.62
2023-04-19T12:45:47.750Z,826.88
2023-04-19T12:46:47.715Z,1878.75